| time (UTC) | temp F | wind direction | speed MPH | gust MPH | rain 1hr in | rain 24hr in | rain mn in | humidity % | barometer mb |
| 20260906215403 | 103 | 160 | 9.0 | 9.0 | 0.00 | 0.00 | 0.00 | 29 | 1009.1 |
| 20260906214903 | 103 | 160 | 9.0 | 9.0 | 0.00 | 0.00 | 0.00 | 29 | 1009.1 |
| 20260906214403 | 103 | 160 | 8.0 | 8.0 | 0.00 | 0.00 | 0.00 | 28 | 1009.2 |
| 20260906213903 | 103 | 160 | 8.0 | 8.0 | 0.00 | 0.00 | 0.00 | 28 | 1009.2 |
| 20260906213403 | 103 | 160 | 8.0 | 10.0 | 0.00 | 0.00 | 0.00 | 29 | 1009.1 |
| 20260906212903 | 103 | 120 | 10.0 | 10.0 | 0.00 | 0.00 | 0.00 | 29 | 1009.3 |
| 20260906211902 | 104 | 120 | 10.0 | 10.0 | 0.00 | 0.00 | 0.00 | 29 | 1009.3 |
| 20260906211403 | 104 | 120 | 10.0 | 10.0 | 0.00 | 0.00 | 0.00 | 29 | 1009.5 |
| 20260906210903 | 104 | 120 | 10.0 | 10.0 | 0.00 | 0.00 | 0.00 | 29 | 1009.6 |
| 20260906210403 | 104 | 120 | 10.0 | 10.0 | 0.00 | 0.00 | 0.00 | 30 | 1009.7 |
| 20260906205903 | 104 | 100 | 7.0 | 7.0 | 0.00 | 0.00 | 0.00 | 29 | 1009.8 |
| 20260906205403 | 104 | 100 | 7.0 | 7.0 | 0.00 | 0.00 | 0.00 | 30 | 1009.8 |
| 20260906204902 | 104 | 100 | 7.0 | 18.0 | 0.00 | 0.00 | 0.00 | 29 | 1009.9 |
| 20260906204403 | 104 | 130 | 6.0 | 18.0 | 0.00 | 0.00 | 0.00 | 29 | 1010.0 |
| 20260906203903 | 104 | 130 | 6.0 | 18.0 | 0.00 | 0.00 | 0.00 | 30 | 1010.0 |
| 20260906203403 | 104 | 130 | 6.0 | 20.0 | 0.00 | 0.00 | 0.00 | 29 | 1010.1 |
| 20260906202903 | 104 | 140 | 9.0 | 20.0 | 0.00 | 0.00 | 0.00 | 29 | 1010.1 |
| 20260906201903 | 103 | 140 | 9.0 | 20.0 | 0.00 | 0.00 | 0.00 | 30 | 1010.4 |
| 20260906201403 | 103 | 140 | 9.0 | 20.0 | 0.00 | 0.00 | 0.00 | 28 | 1010.5 |
| 20260906200903 | 103 | 140 | 9.0 | 20.0 | 0.00 | 0.00 | 0.00 | 28 | 1010.5 |
| 20260906200403 | 104 | 140 | 9.0 | 20.0 | 0.00 | 0.00 | 0.00 | 28 | 1010.6 |
| 20260906195903 | 104 | 90 | 5.0 | 5.0 | 0.00 | 0.00 | 0.00 | 27 | 1010.7 |
| 20260906195403 | 105 | 90 | 5.0 | 5.0 | 0.00 | 0.00 | 0.00 | 29 | 1010.7 |
| 20260906194903 | 104 | 90 | 5.0 | 9.0 | 0.00 | 0.00 | 0.00 | 28 | 1010.7 |
| 20260906193903 | 104 | 180 | 9.0 | 9.0 | 0.00 | 0.00 | 0.00 | 29 | 1010.7 |
| 20260906193403 | 104 | 180 | 9.0 | 9.0 | 0.00 | 0.00 | 0.00 | 29 | 1010.8 |
| 20260906192903 | 104 | 180 | 9.0 | 9.0 | 0.00 | 0.00 | 0.00 | 28 | 1011.0 |
| 20260906192403 | 105 | 180 | 9.0 | 9.0 | 0.00 | 0.00 | 0.00 | 29 | 1011.2 |
| 20260906191903 | 105 | 180 | 9.0 | 9.0 | 0.00 | 0.00 | 0.00 | 29 | 1011.2 |
| 20260906191403 | 104 | 180 | 9.0 | 9.0 | 0.00 | 0.00 | 0.00 | 30 | 1011.2 |
| 20260906190903 | 104 | 180 | 9.0 | 9.0 | 0.00 | 0.00 | 0.00 | 30 | 1011.2 |
| 20260906190403 | 103 | 180 | 9.0 | 9.0 | 0.00 | 0.00 | 0.00 | 31 | 1011.3 |
| 20260906185903 | 103 | 160 | 3.0 | 3.0 | 0.00 | 0.00 | 0.00 | 31 | 1011.3 |
| 20260906185403 | 103 | 160 | 3.0 | 3.0 | 0.00 | 0.00 | 0.00 | 31 | 1011.3 |
| 20260906184903 | 103 | 160 | 3.0 | 8.0 | 0.00 | 0.00 | 0.00 | 31 | 1011.5 |
| 20260906184403 | 103 | 160 | 8.0 | 8.0 | 0.00 | 0.00 | 0.00 | 31 | 1011.6 |
| 20260906183903 | 103 | 160 | 8.0 | 8.0 | 0.00 | 0.00 | 0.00 | 31 | 1011.6 |
| 20260906183403 | 102 | 160 | 8.0 | 8.0 | 0.00 | 0.00 | 0.00 | 32 | 1011.7 |
| 20260906182903 | 102 | 210 | 5.0 | 5.0 | 0.00 | 0.00 | 0.00 | 31 | 1011.8 |
| 20260906182403 | 103 | 210 | 5.0 | 5.0 | 0.00 | 0.00 | 0.00 | 31 | 1011.8 |
| 20260906181903 | 102 | 210 | 5.0 | 5.0 | 0.00 | 0.00 | 0.00 | 31 | 1011.9 |
| 20260906181403 | 102 | 210 | 5.0 | 5.0 | 0.00 | 0.00 | 0.00 | 32 | 1012.0 |
| 20260906180903 | 102 | 210 | 5.0 | 5.0 | 0.00 | 0.00 | 0.00 | 34 | 1012.0 |
| 20260906175903 | 102 | 160 | 10.0 | 10.0 | 0.00 | 0.00 | 0.00 | 32 | 1012.2 |
| 20260906175403 | 101 | 160 | 10.0 | 10.0 | 0.00 | 0.00 | 0.00 | 33 | 1012.1 |
| 20260906174903 | 101 | 160 | 10.0 | 10.0 | 0.00 | 0.00 | 0.00 | 33 | 1012.3 |
| 20260906174403 | 102 | 150 | 10.0 | 10.0 | 0.00 | 0.00 | 0.00 | 32 | 1012.4 |
| 20260906173903 | 102 | 150 | 10.0 | 10.0 | 0.00 | 0.00 | 0.00 | 32 | 1012.5 |
| 20260906173403 | 102 | 150 | 10.0 | 10.0 | 0.00 | 0.00 | 0.00 | 33 | 1012.5 |
| 20260906172903 | 102 | 100 | 6.0 | 6.0 | 0.00 | 0.00 | 0.00 | 34 | 1012.6 |
| 20260906172403 | 101 | 100 | 6.0 | 6.0 | 0.00 | 0.00 | 0.00 | 34 | 1012.6 |
| 20260906171903 | 101 | 100 | 6.0 | 6.0 | 0.00 | 0.00 | 0.00 | 34 | 1012.7 |
| 20260906170903 | 102 | 100 | 6.0 | 6.0 | 0.00 | 0.00 | 0.00 | 33 | 1012.8 |
| 20260906170403 | 102 | 100 | 6.0 | 7.0 | 0.00 | 0.00 | 0.00 | 33 | 1012.9 |
| 20260906165903 | 102 | 60 | 7.0 | 7.0 | 0.00 | 0.00 | 0.00 | 32 | 1013.0 |
| 20260906165403 | 101 | 60 | 7.0 | 7.0 | 0.00 | 0.00 | 0.00 | 32 | 1013.0 |
| 20260906163904 | 100 | 120 | 6.0 | 6.0 | 0.00 | 0.00 | 0.00 | 34 | 1013.0 |
| 20260906163403 | 100 | 120 | 6.0 | 6.0 | 0.00 | 0.00 | 0.00 | 34 | 1013.1 |
| 20260906162403 | 99 | 170 | 3.0 | 3.0 | 0.00 | 0.00 | 0.00 | 36 | 1013.1 |
| 20260906161903 | 99 | 170 | 3.0 | 3.0 | 0.00 | 0.00 | 0.00 | 36 | 1013.1 |
| 20260906161403 | 98 | 170 | 3.0 | 3.0 | 0.00 | 0.00 | 0.00 | 38 | 1013.1 |
| 20260906160903 | 98 | 170 | 3.0 | 3.0 | 0.00 | 0.00 | 0.00 | 39 | 1013.1 |
| 20260906160403 | 98 | 170 | 3.0 | 5.0 | 0.00 | 0.00 | 0.00 | 40 | 1013.1 |
| 20260906155903 | 97 | 170 | 5.0 | 5.0 | 0.00 | 0.00 | 0.00 | 41 | 1013.1 |
| 20260906155404 | 97 | 170 | 5.0 | 5.0 | 0.00 | 0.00 | 0.00 | 42 | 1013.1 |
| 20260906154903 | 96 | 170 | 5.0 | 5.0 | 0.00 | 0.00 | 0.00 | 42 | 1013.1 |
| 20260906154404 | 95 | 130 | 5.0 | 5.0 | 0.00 | 0.00 | 0.00 | 46 | 1013.1 |
| 20260906153903 | 94 | 130 | 5.0 | 5.0 | 0.00 | 0.00 | 0.00 | 46 | 1013.0 |
| 20260906153404 | 94 | 130 | 5.0 | 5.0 | 0.00 | 0.00 | 0.00 | 47 | 1013.1 |
| 20260906152903 | 93 | 130 | 5.0 | 5.0 | 0.00 | 0.00 | 0.00 | 49 | 1013.1 |
| 20260906152403 | 92 | 130 | 5.0 | 5.0 | 0.00 | 0.00 | 0.00 | 52 | 1013.0 |
| 20260906151903 | 91 | 130 | 5.0 | 5.0 | 0.00 | 0.00 | 0.00 | 52 | 1013.0 |
| 20260906151403 | 90 | 130 | 5.0 | 5.0 | 0.00 | 0.00 | 0.00 | 55 | 1013.0 |
| 20260906150904 | 89 | 130 | 5.0 | 5.0 | 0.00 | 0.00 | 0.00 | 57 | 1013.0 |
| 20260906145903 | 88 | 130 | 5.0 | 5.0 | 0.00 | 0.00 | 0.00 | 63 | 1013.1 |
| 20260906145404 | 87 | 130 | 5.0 | 5.0 | 0.00 | 0.00 | 0.00 | 64 | 1013.2 |
| 20260906144903 | 86 | 130 | 5.0 | 5.0 | 0.00 | 0.00 | 0.00 | 66 | 1013.2 |
| 20260906144403 | 85 | 140 | 5.0 | 5.0 | 0.00 | 0.00 | 0.00 | 67 | 1013.2 |
| 20260906143903 | 100 | 140 | 5.0 | 5.0 | 0.00 | 0.00 | 0.00 | 31 | 1013.2 |
| 20260906143404 | 100 | 140 | 5.0 | 5.0 | 0.00 | 0.00 | 0.00 | 31 | 1013.2 |
| 20260906142903 | 100 | 130 | 5.0 | 5.0 | 0.00 | 0.00 | 0.00 | 31 | 1013.2 |
| 20260906142403 | 100 | 130 | 5.0 | 5.0 | 0.00 | 0.00 | 0.00 | 31 | 1013.2 |
| 20260906141903 | 100 | 130 | 5.0 | 5.0 | 0.00 | 0.00 | 0.00 | 31 | 1013.2 |
| 20260906141403 | 100 | 130 | 5.0 | 5.0 | 0.00 | 0.00 | 0.00 | 31 | 1013.3 |
| 20260906140404 | 100 | 130 | 5.0 | 5.0 | 0.00 | 0.00 | 0.00 | 31 | 1013.3 |
| 20260906135903 | 100 | 120 | 3.0 | 3.0 | 0.00 | 0.00 | 0.00 | 31 | 1013.2 |
| 20260906134904 | 100 | 120 | 3.0 | 3.0 | 0.00 | 0.00 | 0.00 | 31 | 1013.2 |
| 20260906134403 | 100 | 130 | 3.0 | 3.0 | 0.00 | 0.00 | 0.00 | 31 | 1013.2 |
| 20260906133903 | 100 | 130 | 3.0 | 3.0 | 0.00 | 0.00 | 0.00 | 31 | 1013.1 |
| 20260906133404 | 100 | 130 | 3.0 | 5.0 | 0.00 | 0.00 | 0.00 | 31 | 1013.0 |
| 20260906132904 | 100 | 190 | 5.0 | 5.0 | 0.00 | 0.00 | 0.00 | 31 | 1013.0 |
| 20260906132406 | 100 | 190 | 5.0 | 5.0 | 0.00 | 0.00 | 0.00 | 31 | 1013.0 |
| 20260906131904 | 100 | 190 | 5.0 | 5.0 | 0.00 | 0.00 | 0.00 | 31 | 1012.9 |
| 20260906131403 | 100 | 190 | 5.0 | 5.0 | 0.00 | 0.00 | 0.00 | 31 | 1012.9 |
| 20260906130903 | 100 | 190 | 5.0 | 5.0 | 0.00 | 0.00 | 0.00 | 31 | 1012.8 |
| 20260906130403 | 100 | 190 | 5.0 | 5.0 | 0.00 | 0.00 | 0.00 | 31 | 1012.8 |
| 20260906125904 | 100 | 190 | 5.0 | 5.0 | 0.00 | 0.00 | 0.00 | 31 | 1012.9 |
| 20260906125403 | 100 | 190 | 5.0 | 5.0 | 0.00 | 0.00 | 0.00 | 31 | 1012.9 |
| 20260906124903 | 100 | 190 | 5.0 | 5.0 | 0.00 | 0.00 | 0.00 | 31 | 1012.9 |
| 20260906123903 | 100 | 190 | 5.0 | 5.0 | 0.00 | 0.00 | 0.00 | 31 | 1012.8 |
| 20260906123404 | 100 | 190 | 5.0 | 5.0 | 0.00 | 0.00 | 0.00 | 31 | 1012.7 |
| 20260906122903 | 100 | 190 | 5.0 | 5.0 | 0.00 | 0.00 | 0.00 | 31 | 1012.7 |
| 20260906122403 | 100 | 190 | 5.0 | 5.0 | 0.00 | 0.00 | 0.00 | 31 | 1012.6 |
| 20260906121904 | 100 | 190 | 5.0 | 5.0 | 0.00 | 0.00 | 0.00 | 31 | 1012.6 |
| 20260906120903 | 100 | 190 | 5.0 | 5.0 | 0.00 | 0.00 | 0.00 | 31 | 1012.5 |
| 20260906120404 | 100 | 190 | 5.0 | 5.0 | 0.00 | 0.00 | 0.00 | 31 | 1012.5 |
| 20260906115904 | 100 | 190 | 5.0 | 5.0 | 0.00 | 0.00 | 0.00 | 31 | 1012.5 |
| 20260906115404 | 100 | 190 | 5.0 | 5.0 | 0.00 | 0.00 | 0.00 | 31 | 1012.5 |
| 20260906114403 | 100 | 190 | 5.0 | 5.0 | 0.00 | 0.00 | 0.00 | 31 | 1012.3 |
| 20260906113904 | 100 | 190 | 4.0 | 5.0 | 0.00 | 0.00 | 0.00 | 31 | 1012.3 |
| 20260906113404 | 100 | 190 | 5.0 | 5.0 | 0.00 | 0.00 | 0.00 | 31 | 1012.2 |
| 20260906112904 | 100 | 190 | 5.0 | 5.0 | 0.00 | 0.00 | 0.00 | 31 | 1012.1 |
| 20260906112403 | 100 | 190 | 5.0 | 5.0 | 0.00 | 0.00 | 0.00 | 31 | 1012.0 |
| 20260906111903 | 100 | 190 | 5.0 | 5.0 | 0.00 | 0.00 | 0.00 | 31 | 1012.1 |
| 20260906111404 | 100 | 190 | 5.0 | 5.0 | 0.00 | 0.00 | 0.00 | 31 | 1012.0 |
| 20260906110904 | 100 | 190 | 5.0 | 5.0 | 0.00 | 0.00 | 0.00 | 31 | 1012.0 |
| 20260906110404 | 100 | 190 | 5.0 | 5.0 | 0.00 | 0.00 | 0.00 | 31 | 1012.0 |
| 20260906105903 | 100 | 190 | 5.0 | 5.0 | 0.00 | 0.00 | 0.00 | 31 | 1011.9 |
| 20260906105404 | 100 | 190 | 5.0 | 5.0 | 0.00 | 0.00 | 0.00 | 31 | 1011.8 |
| 20260906104904 | 100 | 190 | 5.0 | 5.0 | 0.00 | 0.00 | 0.00 | 31 | 1011.7 |
| 20260906104404 | 100 | 190 | 5.0 | 5.0 | 0.00 | 0.00 | 0.00 | 31 | 1011.7 |
| 20260906103904 | 100 | 190 | 5.0 | 5.0 | 0.00 | 0.00 | 0.00 | 31 | 1011.7 |
| 20260906103403 | 100 | 190 | 5.0 | 5.0 | 0.00 | 0.00 | 0.00 | 31 | 1011.7 |
| 20260906102904 | 100 | 190 | 5.0 | 5.0 | 0.00 | 0.00 | 0.00 | 31 | 1011.6 |
| 20260906102403 | 100 | 190 | 5.0 | 5.0 | 0.00 | 0.00 | 0.00 | 31 | 1011.7 |
| 20260906101903 | 100 | 190 | 5.0 | 5.0 | 0.00 | 0.00 | 0.00 | 31 | 1011.7 |
| 20260906101405 | 100 | 190 | 5.0 | 5.0 | 0.00 | 0.00 | 0.00 | 31 | 1011.6 |
| 20260906100904 | 100 | 190 | 5.0 | 5.0 | 0.00 | 0.00 | 0.00 | 31 | 1011.6 |
| 20260906100404 | 100 | 190 | 5.0 | 5.0 | 0.00 | 0.00 | 0.00 | 31 | 1011.6 |
| 20260906095904 | 100 | 190 | 5.0 | 5.0 | 0.00 | 0.00 | 0.00 | 31 | 1011.6 |
| 20260906095403 | 100 | 190 | 5.0 | 5.0 | 0.00 | 0.00 | 0.00 | 31 | 1011.5 |
| 20260906094903 | 100 | 190 | 5.0 | 5.0 | 0.00 | 0.00 | 0.00 | 31 | 1011.5 |
| 20260906094404 | 100 | 190 | 5.0 | 5.0 | 0.00 | 0.00 | 0.00 | 31 | 1011.5 |
| 20260906093404 | 100 | 190 | 5.0 | 5.0 | 0.00 | 0.00 | 0.00 | 31 | 1011.5 |
| 20260906092404 | 100 | 190 | 5.0 | 5.0 | 0.00 | 0.00 | 0.00 | 31 | 1011.5 |
| 20260906091904 | 100 | 190 | 5.0 | 5.0 | 0.00 | 0.00 | 0.00 | 31 | 1011.5 |
| 20260906091404 | 100 | 190 | 5.0 | 5.0 | 0.00 | 0.00 | 0.00 | 31 | 1011.5 |
| 20260906090404 | 100 | 190 | 5.0 | 5.0 | 0.00 | 0.00 | 0.00 | 31 | 1011.4 |
| 20260906085904 | 100 | 190 | 5.0 | 5.0 | 0.00 | 0.00 | 0.00 | 31 | 1011.3 |
| 20260906085404 | 100 | 190 | 5.0 | 5.0 | 0.00 | 0.00 | 0.00 | 31 | 1011.4 |
| 20260906084904 | 100 | 190 | 5.0 | 5.0 | 0.00 | 0.00 | 0.00 | 31 | 1011.3 |
| 20260906084404 | 100 | 190 | 5.0 | 5.0 | 0.00 | 0.00 | 0.00 | 31 | 1011.3 |
| 20260906082903 | 100 | 190 | 5.0 | 5.0 | 0.00 | 0.00 | 0.00 | 31 | 1011.1 |
| 20260906082404 | 100 | 190 | 5.0 | 5.0 | 0.00 | 0.00 | 0.00 | 31 | 1011.2 |
| 20260906081904 | 100 | 190 | 5.0 | 5.0 | 0.00 | 0.00 | 0.00 | 31 | 1011.1 |
| 20260906081404 | 100 | 190 | 5.0 | 5.0 | 0.00 | 0.00 | 0.00 | 31 | 1011.2 |
| 20260906080904 | 100 | 190 | 5.0 | 5.0 | 0.00 | 0.00 | 0.00 | 31 | 1011.2 |
| 20260906080404 | 100 | 190 | 5.0 | 5.0 | 0.00 | 0.00 | 0.00 | 31 | 1011.2 |
| 20260906075903 | 100 | 190 | 5.0 | 5.0 | 0.00 | 0.00 | 0.00 | 31 | 1011.2 |
| 20260906074903 | 100 | 190 | 5.0 | 5.0 | 0.00 | 0.00 | 0.00 | 31 | 1011.2 |
| 20260906074404 | 100 | 190 | 5.0 | 5.0 | 0.00 | 0.00 | 0.00 | 31 | 1011.1 |
| 20260906073904 | 100 | 190 | 5.0 | 5.0 | 0.00 | 0.00 | 0.00 | 31 | 1011.1 |
| 20260906073404 | 100 | 190 | 5.0 | 5.0 | 0.00 | 0.00 | 0.00 | 31 | 1011.1 |
| 20260906072404 | 100 | 190 | 5.0 | 5.0 | 0.00 | 0.00 | 0.00 | 31 | 1010.9 |
| 20260906071904 | 100 | 190 | 5.0 | 5.0 | 0.00 | 0.00 | 0.00 | 31 | 1010.8 |
| 20260906071404 | 100 | 190 | 5.0 | 5.0 | 0.00 | 0.00 | 0.00 | 31 | 1010.9 |
| 20260906070903 | 100 | 190 | 5.0 | 5.0 | 0.00 | 0.00 | 0.00 | 31 | 1011.0 |
| 20260906070404 | 100 | 190 | 5.0 | 5.0 | 0.00 | 0.00 | 0.00 | 31 | 1011.1 |
| 20260906065904 | 100 | 190 | 5.0 | 5.0 | 0.00 | 0.00 | 0.00 | 31 | 1011.1 |
| 20260906065403 | 100 | 190 | 5.0 | 5.0 | 0.00 | 0.00 | 0.00 | 31 | 1011.2 |
| 20260906064903 | 100 | 190 | 5.0 | 5.0 | 0.00 | 0.00 | 0.00 | 31 | 1011.3 |
| 20260906064404 | 100 | 190 | 5.0 | 5.0 | 0.00 | 0.00 | 0.00 | 31 | 1011.2 |
| 20260906063904 | 100 | 190 | 5.0 | 5.0 | 0.00 | 0.00 | 0.00 | 31 | 1011.2 |
| 20260906063404 | 100 | 190 | 5.0 | 5.0 | 0.00 | 0.00 | 0.00 | 31 | 1011.2 |
| 20260906062905 | 100 | 190 | 5.0 | 5.0 | 0.00 | 0.00 | 0.00 | 31 | 1011.1 |
| 20260906062404 | 100 | 190 | 5.0 | 5.0 | 0.00 | 0.00 | 0.00 | 31 | 1011.1 |
| 20260906061904 | 100 | 190 | 5.0 | 5.0 | 0.00 | 0.00 | 0.00 | 31 | 1011.3 |
| 20260906061404 | 100 | 190 | 5.0 | 5.0 | 0.00 | 0.00 | 0.00 | 31 | 1011.3 |
| 20260906060904 | 100 | 190 | 5.0 | 5.0 | 0.00 | 0.00 | 0.00 | 31 | 1011.3 |
| 20260906060403 | 100 | 190 | 5.0 | 5.0 | 0.00 | 0.00 | 0.00 | 31 | 1011.3 |
| 20260906055853 | 100 | 190 | 5.0 | 5.0 | 0.00 | 0.00 | 0.00 | 31 | 1011.4 |
| 20260906055354 | 100 | 190 | 5.0 | 5.0 | 0.00 | 0.00 | 0.00 | 31 | 1011.3 |
| 20260906054853 | 100 | 190 | 5.0 | 5.0 | 0.00 | 0.00 | 0.00 | 31 | 1011.3 |
| 20260906054354 | 100 | 190 | 5.0 | 5.0 | 0.00 | 0.00 | 0.00 | 31 | 1011.2 |
| 20260906053853 | 100 | 190 | 5.0 | 5.0 | 0.00 | 0.00 | 0.00 | 31 | 1011.1 |
| 20260906053353 | 100 | 190 | 5.0 | 5.0 | 0.00 | 0.00 | 0.00 | 31 | 1011.1 |
| 20260906052854 | 100 | 180 | 5.0 | 5.0 | 0.00 | 0.00 | 0.00 | 31 | 1011.2 |
| 20260906052354 | 100 | 180 | 5.0 | 5.0 | 0.00 | 0.00 | 0.00 | 31 | 1011.2 |
| 20260906051353 | 100 | 180 | 5.0 | 5.0 | 0.00 | 0.00 | 0.00 | 31 | 1011.1 |
| 20260906050854 | 100 | 180 | 5.0 | 5.0 | 0.00 | 0.00 | 0.00 | 31 | 1011.2 |
| 20260906050354 | 100 | 180 | 5.0 | 5.0 | 0.00 | 0.00 | 0.00 | 31 | 1011.3 |
| 20260906045854 | 100 | 190 | 3.0 | 3.0 | 0.00 | 0.00 | 0.00 | 31 | 1011.4 |
| 20260906045354 | 100 | 190 | 3.0 | 3.0 | 0.00 | 0.00 | 0.00 | 31 | 1011.4 |
| 20260906044854 | 100 | 190 | 3.0 | 7.0 | 0.00 | 0.00 | 0.00 | 31 | 1011.3 |
| 20260906044354 | 100 | 100 | 7.0 | 7.0 | 0.00 | 0.00 | 0.00 | 31 | 1011.3 |
| 20260906043853 | 100 | 100 | 7.0 | 7.0 | 0.00 | 0.00 | 0.00 | 31 | 1011.2 |
| 20260906042853 | 100 | 250 | 3.0 | 3.0 | 0.00 | 0.00 | 0.00 | 31 | 1011.0 |
| 20260906042354 | 100 | 250 | 3.0 | 3.0 | 0.00 | 0.00 | 0.00 | 31 | 1011.1 |
| 20260906041854 | 100 | 250 | 3.0 | 3.0 | 0.00 | 0.00 | 0.00 | 31 | 1011.1 |
| 20260906040854 | 100 | 250 | 3.0 | 3.0 | 0.00 | 0.00 | 0.00 | 31 | 1011.3 |
| 20260906040354 | 100 | 250 | 3.0 | 3.0 | 0.00 | 0.00 | 0.00 | 31 | 1011.2 |
| 20260906035354 | 100 | 250 | 3.0 | 3.0 | 0.00 | 0.00 | 0.00 | 31 | 1011.3 |
| 20260906034854 | 100 | 250 | 3.0 | 5.0 | 0.00 | 0.00 | 0.00 | 31 | 1011.3 |
| 20260906034401 | 100 | 150 | 5.0 | 5.0 | 0.00 | 0.00 | 0.00 | 31 | 1011.3 |
| 20260906033854 | 100 | 150 | 5.0 | 5.0 | 0.00 | 0.00 | 0.00 | 31 | 1011.2 |
| 20260906033353 | 100 | 150 | 5.0 | 5.0 | 0.00 | 0.00 | 0.00 | 31 | 1011.1 |
| 20260906032354 | 100 | 150 | 5.0 | 5.0 | 0.00 | 0.00 | 0.00 | 31 | 1011.1 |
| 20260906031853 | 100 | 150 | 5.0 | 5.0 | 0.00 | 0.00 | 0.00 | 31 | 1011.0 |
| 20260906031354 | 100 | 150 | 5.0 | 5.0 | 0.00 | 0.00 | 0.00 | 31 | 1011.0 |
| 20260906030854 | 100 | 150 | 5.0 | 5.0 | 0.00 | 0.00 | 0.00 | 31 | 1010.9 |
| 20260906030354 | 100 | 150 | 5.0 | 5.0 | 0.00 | 0.00 | 0.00 | 31 | 1010.8 |
| 20260906025854 | 100 | 150 | 5.0 | 5.0 | 0.00 | 0.00 | 0.00 | 31 | 1010.8 |
| 20260906025354 | 100 | 150 | 5.0 | 5.0 | 0.00 | 0.00 | 0.00 | 31 | 1010.7 |
| 20260906024854 | 100 | 150 | 5.0 | 5.0 | 0.00 | 0.00 | 0.00 | 31 | 1010.7 |
| 20260906023854 | 100 | 150 | 5.0 | 5.0 | 0.00 | 0.00 | 0.00 | 31 | 1010.6 |
| 20260906023354 | 100 | 150 | 5.0 | 5.0 | 0.00 | 0.00 | 0.00 | 31 | 1010.5 |
| 20260906022354 | 100 | 150 | 5.0 | 5.0 | 0.00 | 0.00 | 0.00 | 31 | 1010.3 |
| 20260906021853 | 100 | 150 | 5.0 | 5.0 | 0.00 | 0.00 | 0.00 | 31 | 1010.3 |
| 20260906021353 | 100 | 150 | 5.0 | 5.0 | 0.00 | 0.00 | 0.00 | 31 | 1010.3 |
| 20260906020854 | 100 | 150 | 5.0 | 5.0 | 0.00 | 0.00 | 0.00 | 31 | 1010.2 |
| 20260906020354 | 100 | 150 | 5.0 | 5.0 | 0.00 | 0.00 | 0.00 | 31 | 1010.2 |
| 20260906015854 | 100 | 150 | 5.0 | 5.0 | 0.00 | 0.00 | 0.00 | 31 | 1010.1 |
| 20260906015353 | 100 | 150 | 5.0 | 5.0 | 0.00 | 0.00 | 0.00 | 31 | 1010.1 |
| 20260906014854 | 100 | 150 | 5.0 | 5.0 | 0.00 | 0.00 | 0.00 | 31 | 1010.1 |
| 20260906014354 | 100 | 150 | 5.0 | 5.0 | 0.00 | 0.00 | 0.00 | 31 | 1010.1 |
| 20260906013854 | 100 | 150 | 5.0 | 5.0 | 0.00 | 0.00 | 0.00 | 31 | 1010.0 |
| 20260906013354 | 100 | 150 | 5.0 | 5.0 | 0.00 | 0.00 | 0.00 | 31 | 1009.8 |
| 20260906012854 | 100 | 150 | 5.0 | 5.0 | 0.00 | 0.00 | 0.00 | 31 | 1009.8 |
| 20260906012354 | 100 | 150 | 5.0 | 5.0 | 0.00 | 0.00 | 0.00 | 31 | 1009.7 |
| 20260906011854 | 100 | 150 | 5.0 | 5.0 | 0.00 | 0.00 | 0.00 | 31 | 1009.6 |
| 20260906011353 | 100 | 150 | 5.0 | 5.0 | 0.00 | 0.00 | 0.00 | 31 | 1009.6 |
| 20260906010854 | 100 | 150 | 5.0 | 5.0 | 0.00 | 0.00 | 0.00 | 31 | 1009.5 |
| 20260906010354 | 100 | 150 | 5.0 | 5.0 | 0.00 | 0.00 | 0.00 | 31 | 1009.5 |
| 20260906005854 | 100 | 150 | 5.0 | 5.0 | 0.00 | 0.00 | 0.00 | 31 | 1009.6 |
| 20260906005354 | 100 | 150 | 5.0 | 5.0 | 0.00 | 0.00 | 0.00 | 31 | 1009.5 |
| 20260906004354 | 100 | 140 | 6.0 | 6.0 | 0.00 | 0.00 | 0.00 | 31 | 1009.4 |
| 20260906003854 | 100 | 140 | 6.0 | 6.0 | 0.00 | 0.00 | 0.00 | 31 | 1009.4 |
| 20260906003354 | 100 | 140 | 6.0 | 7.0 | 0.00 | 0.00 | 0.00 | 31 | 1009.3 |
| 20260906002354 | 100 | 150 | 7.0 | 7.0 | 0.00 | 0.00 | 0.00 | 31 | 1009.3 |
| 20260906001854 | 100 | 150 | 7.0 | 7.0 | 0.00 | 0.00 | 0.00 | 31 | 1009.3 |
| 20260906000854 | 100 | 150 | 7.0 | 7.0 | 0.00 | 0.00 | 0.00 | 31 | 1009.3 |
| 20260906000356 | 100 | 150 | 7.0 | 9.0 | 0.00 | 0.00 | 0.00 | 31 | 1009.2 |
| 20260905235854 | 100 | 130 | 9.0 | 9.0 | 0.00 | 0.00 | 0.00 | 31 | 1009.2 |
| 20260905235354 | 100 | 130 | 9.0 | 9.0 | 0.00 | 0.00 | 0.00 | 31 | 1009.2 |
| 20260905234354 | 100 | 140 | 8.0 | 8.0 | 0.00 | 0.00 | 0.00 | 31 | 1009.1 |
| 20260905233854 | 100 | 140 | 8.0 | 8.0 | 0.00 | 0.00 | 0.00 | 31 | 1009.0 |
| 20260905233355 | 100 | 140 | 8.0 | 10.0 | 0.00 | 0.00 | 0.00 | 31 | 1009.0 |
| 20260905232854 | 100 | 110 | 10.0 | 10.0 | 0.00 | 0.00 | 0.00 | 31 | 1009.0 |
| 20260905231854 | 101 | 110 | 10.0 | 10.0 | 0.00 | 0.00 | 0.00 | 30 | 1009.0 |
| 20260905231354 | 101 | 110 | 10.0 | 10.0 | 0.00 | 0.00 | 0.00 | 30 | 1009.0 |
| 20260905230354 | 102 | 110 | 10.0 | 10.0 | 0.00 | 0.00 | 0.00 | 30 | 1009.1 |
| 20260905225854 | 102 | 140 | 10.0 | 10.0 | 0.00 | 0.00 | 0.00 | 30 | 1009.0 |
| 20260905224854 | 103 | 140 | 10.0 | 10.0 | 0.00 | 0.00 | 0.00 | 29 | 1009.0 |
| 20260905224354 | 103 | 180 | 7.0 | 7.0 | 0.00 | 0.00 | 0.00 | 30 | 1008.9 |
| 20260905223854 | 103 | 180 | 7.0 | 7.0 | 0.00 | 0.00 | 0.00 | 30 | 1009.0 |
| 20260905223355 | 102 | 180 | 7.0 | 7.0 | 0.00 | 0.00 | 0.00 | 30 | 1009.0 |
| 20260905222854 | 102 | 120 | 6.0 | 6.0 | 0.00 | 0.00 | 0.00 | 30 | 1009.0 |
| 20260905222354 | 102 | 120 | 6.0 | 6.0 | 0.00 | 0.00 | 0.00 | 30 | 1009.0 |
| 20260905221854 | 102 | 120 | 6.0 | 6.0 | 0.00 | 0.00 | 0.00 | 30 | 1009.0 |
| 20260905220854 | 102 | 120 | 6.0 | 6.0 | 0.00 | 0.00 | 0.00 | 29 | 1009.1 |